createdAt,value
2016-06-21T06:11:32.486Z,156
2016-06-21T06:12:32.407Z,204
2016-06-21T06:13:32.423Z,332
2016-06-21T06:14:33.234Z,408
2016-06-21T06:15:32.420Z,396
2016-06-21T06:16:33.075Z,348
2016-06-21T06:17:33.310Z,304
2016-06-21T06:18:32.446Z,296
2016-06-21T06:19:32.488Z,344
2016-06-21T06:20:32.463Z,292
2016-06-21T06:21:32.457Z,244
2016-06-21T06:22:32.454Z,208
2016-06-21T06:23:32.470Z,160
2016-06-21T06:24:32.791Z,128
2016-06-21T06:25:33.380Z,120
2016-06-21T06:26:33.106Z,120
2016-06-21T06:27:32.490Z,108
2016-06-21T06:28:33.127Z,104
2016-06-21T06:29:32.508Z,104
2016-06-21T06:30:32.528Z,104
2016-06-21T06:31:32.517Z,112
2016-06-21T06:32:32.539Z,128
2016-06-21T06:33:32.521Z,140
2016-06-21T06:34:32.540Z,156
2016-06-21T06:35:32.540Z,160
2016-06-21T06:36:32.546Z,160
2016-06-21T06:37:32.551Z,160
2016-06-21T06:38:32.555Z,164
2016-06-21T06:39:32.553Z,168
2016-06-21T06:40:32.567Z,204
2016-06-21T06:41:32.569Z,296
2016-06-21T06:42:32.595Z,404
2016-06-21T06:43:33.222Z,480
2016-06-21T06:44:32.600Z,596
2016-06-21T06:45:32.622Z,720
2016-06-21T06:46:33.214Z,628
2016-06-21T06:47:32.603Z,608
2016-06-21T06:48:32.607Z,576
2016-06-21T06:49:32.630Z,604
2016-06-21T06:50:32.632Z,576
2016-06-21T06:51:33.503Z,652
2016-06-21T06:52:32.622Z,616
2016-06-21T06:53:32.663Z,568
2016-06-21T06:54:32.648Z,504
2016-06-21T06:55:33.081Z,504
2016-06-21T06:56:32.669Z,520
2016-06-21T06:57:32.657Z,540
2016-06-21T06:58:32.670Z,548
2016-06-21T06:59:33.808Z,508
2016-06-21T07:00:32.669Z,472
2016-06-21T07:01:33.582Z,516
2016-06-21T07:02:33.308Z,556
2016-06-21T07:03:33.291Z,592
2016-06-21T07:04:32.704Z,568
2016-06-21T07:05:34.646Z,544
2016-06-21T07:06:34.197Z,568
2016-06-21T07:07:32.799Z,560
2016-06-21T07:08:32.726Z,524
2016-06-21T07:09:34.224Z,528
2016-06-21T07:10:32.726Z,584
2016-06-21T07:11:32.794Z,564
2016-06-21T07:12:32.747Z,608
2016-06-21T07:13:33.180Z,572
2016-06-21T07:14:33.039Z,508
2016-06-21T07:15:34.097Z,500
2016-06-21T07:16:32.763Z,488
2016-06-21T07:17:32.760Z,604
2016-06-21T07:18:32.938Z,608
2016-06-21T07:19:33.671Z,580
2016-06-21T07:20:32.810Z,592
2016-06-21T07:21:32.790Z,524
2016-06-21T07:22:33.671Z,472
2016-06-21T07:23:32.827Z,432
2016-06-21T07:24:32.813Z,400
2016-06-21T07:25:32.812Z,376
2016-06-21T07:26:33.046Z,348
2016-06-21T07:27:33.497Z,396
2016-06-21T07:28:32.855Z,416
2016-06-21T07:29:32.827Z,392
2016-06-21T07:30:32.834Z,396
2016-06-21T07:31:32.916Z,324
2016-06-21T07:32:32.888Z,284
2016-06-21T07:33:33.510Z,288
2016-06-21T07:34:32.862Z,352
2016-06-21T07:35:32.897Z,304
2016-06-21T07:36:32.903Z,312
2016-06-21T07:37:32.907Z,276
2016-06-21T07:38:32.906Z,240
2016-06-21T07:39:32.902Z,344
2016-06-21T07:40:34.423Z,304
2016-06-21T07:41:32.930Z,792
2016-06-21T07:42:32.921Z,404
2016-06-21T07:43:34.028Z,536
2016-06-21T07:44:32.961Z,516
2016-06-21T07:45:32.959Z,368
2016-06-21T07:46:32.941Z,332
2016-06-21T07:47:32.968Z,300
2016-06-21T07:48:33.110Z,244
2016-06-21T07:49:32.958Z,208
2016-06-21T07:50:32.979Z,188
2016-06-21T07:51:33.101Z,172
2016-06-21T07:52:34.252Z,176
2016-06-21T07:53:32.975Z,196
2016-06-21T07:54:33.613Z,228
2016-06-21T07:55:33.010Z,244
2016-06-21T07:56:33.025Z,360
2016-06-21T07:57:33.013Z,692
2016-06-21T07:58:32.984Z,532
2016-06-21T07:59:33.642Z,588
2016-06-21T08:00:33.010Z,592
2016-06-21T08:01:33.022Z,456
2016-06-21T08:02:33.014Z,472
2016-06-21T08:03:33.017Z,440
2016-06-21T08:04:33.055Z,420
2016-06-21T08:05:33.664Z,396
2016-06-21T08:06:33.027Z,384
2016-06-21T08:07:33.098Z,348
2016-06-21T08:08:33.051Z,312
2016-06-21T08:09:33.065Z,300
2016-06-21T08:10:33.695Z,280
2016-06-21T08:11:33.126Z,268
2016-06-21T08:12:33.071Z,256
2016-06-21T08:13:33.088Z,260
2016-06-21T08:14:33.076Z,280
2016-06-21T08:15:33.091Z,288
2016-06-21T08:16:33.102Z,324
2016-06-21T08:17:33.104Z,336
2016-06-21T08:18:33.100Z,392
2016-06-21T08:19:33.143Z,448
2016-06-21T08:20:33.135Z,464
2016-06-21T08:21:33.110Z,440
2016-06-21T08:22:33.157Z,432
2016-06-21T08:23:33.142Z,416
2016-06-21T08:24:33.173Z,400
2016-06-21T08:25:33.795Z,412
2016-06-21T08:26:33.148Z,504
2016-06-21T08:27:33.158Z,496
2016-06-21T08:28:33.171Z,420
2016-06-21T08:29:33.567Z,420
2016-06-21T08:30:33.218Z,452
2016-06-21T08:31:33.190Z,528
2016-06-21T08:32:33.196Z,892
2016-06-21T08:33:33.488Z,904
2016-06-21T08:34:33.198Z,748
2016-06-21T08:35:33.211Z,724
2016-06-21T08:36:33.229Z,876
2016-06-21T08:37:33.856Z,444
2016-06-21T08:38:33.223Z,396
2016-06-21T08:39:33.247Z,380
2016-06-21T08:40:33.245Z,384
2016-06-21T08:41:33.251Z,356
2016-06-21T08:42:33.267Z,328
2016-06-21T08:43:33.273Z,348
2016-06-21T08:44:33.266Z,508
2016-06-21T08:45:33.284Z,432
2016-06-21T08:46:33.276Z,532
2016-06-21T08:47:33.274Z,604
2016-06-21T08:48:33.272Z,464
2016-06-21T08:49:33.295Z,396
2016-06-21T08:50:33.307Z,828
2016-06-21T08:51:33.302Z,836
2016-06-21T08:52:33.317Z,704
2016-06-21T08:53:33.355Z,728
2016-06-21T08:54:33.332Z,808
2016-06-21T08:55:33.338Z,444
2016-06-21T08:56:34.545Z,340
2016-06-21T08:57:33.506Z,380
2016-06-21T08:58:33.358Z,400
2016-06-21T08:59:33.343Z,520
2016-06-21T09:00:33.358Z,648
2016-06-21T09:01:33.361Z,484
2016-06-21T09:02:33.375Z,656
2016-06-21T09:03:33.359Z,556
2016-06-21T09:04:33.392Z,620
2016-06-21T09:05:33.387Z,628
2016-06-21T09:06:33.405Z,628
2016-06-21T09:07:33.406Z,696
2016-06-21T09:08:33.425Z,540
2016-06-21T09:09:33.772Z,572
2016-06-21T09:10:33.423Z,584
2016-06-21T09:11:33.472Z,500
2016-06-21T09:12:33.422Z,480
2016-06-21T09:13:33.437Z,396
2016-06-21T09:14:33.452Z,368
2016-06-21T09:15:33.436Z,440
2016-06-21T09:16:33.489Z,384
2016-06-21T09:17:33.472Z,344
2016-06-21T09:18:33.461Z,380
2016-06-21T09:19:33.474Z,444
2016-06-21T09:20:33.487Z,388
2016-06-21T09:21:33.480Z,396
2016-06-21T09:22:33.487Z,472
2016-06-21T09:23:33.495Z,524
2016-06-21T09:24:33.529Z,428
2016-06-21T09:25:33.505Z,436
2016-06-21T09:26:33.508Z,516
2016-06-21T09:27:34.142Z,380
2016-06-21T09:28:34.531Z,444
2016-06-21T09:29:33.528Z,492
2016-06-21T09:30:34.157Z,460
2016-06-21T09:31:33.547Z,464
2016-06-21T09:32:33.547Z,460
2016-06-21T09:33:33.531Z,468
2016-06-21T09:34:33.563Z,488
2016-06-21T09:35:33.570Z,504
2016-06-21T09:36:34.201Z,524
2016-06-21T09:37:34.199Z,508
2016-06-21T09:38:34.208Z,472
2016-06-21T09:39:34.247Z,380
2016-06-21T09:40:33.617Z,340
2016-06-21T09:41:33.602Z,480
2016-06-21T09:42:33.610Z,348
2016-06-21T09:43:33.623Z,392
2016-06-21T09:44:34.257Z,384
2016-06-21T09:45:33.610Z,512
2016-06-21T09:46:34.446Z,504
2016-06-21T09:47:33.640Z,500
2016-06-21T09:48:33.652Z,488
2016-06-21T09:49:33.661Z,488
2016-06-21T09:50:33.654Z,496
2016-06-21T09:51:35.029Z,464
2016-06-21T09:52:33.695Z,456
2016-06-21T09:53:33.666Z,464
2016-06-21T09:54:33.693Z,468
2016-06-21T09:55:33.681Z,488
2016-06-21T09:56:33.680Z,496
2016-06-21T09:57:33.695Z,488
2016-06-21T09:58:34.204Z,428
2016-06-21T09:59:33.723Z,380
2016-06-21T10:00:33.725Z,472
2016-06-21T10:01:34.344Z,476
2016-06-21T10:02:33.725Z,464
2016-06-21T10:03:33.753Z,452
2016-06-21T10:04:33.767Z,460
2016-06-21T10:05:33.746Z,424
2016-06-21T10:06:34.708Z,380
2016-06-21T10:07:33.820Z,412
2016-06-21T10:08:33.778Z,420
2016-06-21T10:09:33.742Z,392
2016-06-21T10:10:33.884Z,364
2016-06-21T10:11:33.920Z,372
2016-06-21T10:12:34.450Z,464
2016-06-21T10:13:34.442Z,456
2016-06-21T10:14:33.802Z,444
2016-06-21T10:15:33.830Z,464
2016-06-21T10:16:33.815Z,464
2016-06-21T10:17:33.819Z,428
2016-06-21T10:18:33.832Z,488
2016-06-21T10:19:33.834Z,460
2016-06-21T10:20:35.139Z,428
2016-06-21T10:21:33.843Z,436
2016-06-21T10:22:34.472Z,432
2016-06-21T10:23:33.858Z,436
2016-06-21T10:24:34.487Z,452
2016-06-21T10:25:33.919Z,396
2016-06-21T10:26:34.505Z,412
2016-06-21T10:27:34.492Z,508
2016-06-21T10:28:33.858Z,408
2016-06-21T10:29:33.867Z,364
2016-06-21T10:30:34.538Z,384
2016-06-21T10:31:33.913Z,400
2016-06-21T10:32:34.513Z,544
2016-06-21T10:33:33.921Z,516
2016-06-21T10:34:33.918Z,504
2016-06-21T10:35:33.939Z,524
2016-06-21T10:36:33.912Z,420
2016-06-21T10:37:33.911Z,424
2016-06-21T10:38:33.934Z,416
2016-06-21T10:39:33.931Z,412
2016-06-21T10:40:34.569Z,392
2016-06-21T10:41:33.951Z,388
2016-06-21T10:42:33.972Z,396
2016-06-21T10:43:33.953Z,368
2016-06-21T10:44:33.968Z,504
2016-06-21T10:45:33.963Z,524
2016-06-21T10:46:33.990Z,520
2016-06-21T10:49:03.736Z,516
2016-06-21T10:49:14.911Z,520
2016-06-21T10:50:14.231Z,524
2016-06-21T10:51:14.221Z,480
2016-06-21T10:52:14.227Z,360
2016-06-21T10:53:14.219Z,460
2016-06-21T10:54:14.867Z,412
2016-06-21T10:55:14.882Z,388
2016-06-21T10:56:14.240Z,444
2016-06-21T10:57:14.236Z,408
2016-06-21T10:58:14.253Z,416
2016-06-21T10:59:14.352Z,380
2016-06-21T11:00:14.272Z,444
2016-06-21T11:01:14.278Z,348
2016-06-21T11:02:14.276Z,428
2016-06-21T11:03:14.290Z,424
2016-06-21T11:04:14.294Z,420
2016-06-21T11:05:14.297Z,408
2016-06-21T11:06:14.333Z,416
2016-06-21T11:07:14.308Z,428
2016-06-21T11:08:14.953Z,320
2016-06-21T11:09:14.318Z,384
2016-06-21T11:10:15.354Z,368
2016-06-21T11:11:15.266Z,300
2016-06-21T11:12:14.314Z,312
2016-06-21T11:13:14.335Z,360
